createdAt,value
2023-04-03T00:02:44.926Z,101187.77
2023-04-03T00:06:48.283Z,101190.95
2023-04-03T00:10:51.769Z,101192.95
2023-04-03T00:14:54.658Z,101191.60
2023-04-03T00:18:57.901Z,101190.10
2023-04-03T00:23:03.591Z,101193.36
2023-04-03T00:27:06.719Z,101191.23
2023-04-03T00:31:09.693Z,101192.55
2023-04-03T00:35:12.685Z,101190.37
2023-04-03T00:39:15.654Z,101192.88
2023-04-03T00:43:21.613Z,101194.60
2023-04-03T00:47:25.629Z,101197.37
2023-04-03T00:51:29.401Z,101202.46
2023-04-03T00:55:32.784Z,101200.98
2023-04-03T00:59:40.356Z,101207.95
2023-04-03T01:03:43.971Z,101209.73
2023-04-03T01:07:47.659Z,101207.92
2023-04-03T01:11:50.553Z,101208.73
2023-04-03T01:15:54.626Z,101204.20
2023-04-03T01:20:37.701Z,101210.10
2023-04-03T01:24:41.203Z,101215.41
2023-04-03T01:28:44.185Z,101211.84
2023-04-03T01:32:47.329Z,101215.71
2023-04-03T01:36:51.918Z,101221.42
2023-04-03T01:41:16.605Z,101225.84
2023-04-03T01:45:19.694Z,101227.77
2023-04-03T01:49:22.946Z,101226.90
2023-04-03T01:53:26.296Z,101233.30
2023-04-03T01:57:29.663Z,101237.62
2023-04-03T02:01:32.921Z,101236.52
2023-04-03T02:05:36.097Z,101243.45
2023-04-03T02:09:38.945Z,101241.02
2023-04-03T02:13:41.968Z,101237.52
2023-04-03T02:17:45.459Z,101241.13
2023-04-03T02:21:48.958Z,101238.98
2023-04-03T02:25:51.818Z,101241.15
2023-04-03T02:29:55.037Z,101243.41
2023-04-03T02:33:57.979Z,101248.54
2023-04-03T02:38:01.287Z,101255.03
2023-04-03T02:42:04.498Z,101255.89
2023-04-03T02:46:07.933Z,101256.01
2023-04-03T02:50:11.373Z,101254.86
2023-04-03T02:54:14.954Z,101257.21
2023-04-03T02:58:18.281Z,101257.52
2023-04-03T03:02:22.949Z,101260.21
2023-04-03T03:06:26.854Z,101262.25
2023-04-03T03:10:30.543Z,101264.13
2023-04-03T03:14:33.514Z,101268.39
2023-04-03T03:18:37.825Z,101269.17
2023-04-03T03:22:40.856Z,101269.92
2023-04-03T03:26:44.236Z,101268.94
2023-04-03T03:30:47.733Z,101266.48
2023-04-03T03:34:52.876Z,101268.10
2023-04-03T03:38:56.533Z,101271.30
2023-04-03T03:43:00.691Z,101272.79
2023-04-03T03:47:04.228Z,101273.13
2023-04-03T03:51:07.502Z,101281.08
2023-04-03T03:55:10.603Z,101283.86
2023-04-03T03:59:13.879Z,101285.48
2023-04-03T04:03:17.599Z,101285.03
2023-04-03T04:07:20.956Z,101289.73
2023-04-03T04:11:24.441Z,101288.94
2023-04-03T04:15:28.789Z,101290.51
2023-04-03T04:19:32.162Z,101294.22
2023-04-03T04:23:35.305Z,101302.97
2023-04-03T04:27:38.746Z,101307.00
2023-04-03T04:31:41.677Z,101310.34
2023-04-03T04:35:44.922Z,101311.77
2023-04-03T04:39:47.992Z,101311.17
2023-04-03T04:43:51.910Z,101314.38
2023-04-03T04:47:57.129Z,101322.16
2023-04-03T04:52:00.291Z,101327.23
2023-04-03T04:56:03.582Z,101333.35
2023-04-03T05:00:07.128Z,101336.52
2023-04-03T05:04:13.779Z,101340.30
2023-04-03T05:08:18.754Z,101340.84
2023-04-03T05:12:23.133Z,101352.52
2023-04-03T05:16:26.641Z,101358.89
2023-04-03T05:20:29.724Z,101363.08
2023-04-03T05:24:32.770Z,101363.39
2023-04-03T05:28:36.237Z,101360.38
2023-04-03T05:32:39.918Z,101359.34
2023-04-03T05:36:43.371Z,101363.47
2023-04-03T05:40:46.863Z,101362.20
2023-04-03T05:44:51.210Z,101363.20
2023-04-03T05:48:54.617Z,101369.14
2023-04-03T05:52:59.866Z,101370.95
2023-04-03T05:57:02.960Z,101370.61
2023-04-03T06:01:06.642Z,101378.48
2023-04-03T06:05:12.526Z,101379.73
2023-04-03T06:09:16.609Z,101383.80
2023-04-03T06:13:19.551Z,101386.66
2023-04-03T06:17:22.875Z,101389.90
2023-04-03T06:21:26.165Z,101390.70
2023-04-03T06:25:29.351Z,101387.36
2023-04-03T06:29:32.868Z,101395.64
2023-04-03T06:33:36.225Z,101398.63
2023-04-03T06:37:39.507Z,101398.21
2023-04-03T06:41:43.078Z,101397.41
2023-04-03T06:45:46.321Z,101404.44
2023-04-03T06:49:49.975Z,101403.12
2023-04-03T06:53:54.807Z,101409.55
2023-04-03T06:57:58.006Z,101412.65
2023-04-03T07:02:01.666Z,101412.46
2023-04-03T07:06:06.766Z,101412.88
2023-04-03T07:10:11.060Z,101421.95
2023-04-03T07:14:14.478Z,101424.84
2023-04-03T07:18:20.805Z,101430.81
2023-04-03T07:22:24.233Z,101430.52
2023-04-03T07:26:27.236Z,101439.48
2023-04-03T07:30:31.612Z,101438.23
2023-04-03T07:34:35.597Z,101446.69
2023-04-03T07:38:39.001Z,101454.16
2023-04-03T07:42:43.041Z,101446.81
2023-04-03T07:46:47.935Z,101447.91
2023-04-03T07:50:51.627Z,101451.31
2023-04-03T07:54:55.213Z,101443.02
2023-04-03T07:58:58.948Z,101438.41
2023-04-03T08:03:02.815Z,101438.13
2023-04-03T08:07:06.663Z,101444.25
2023-04-03T08:11:11.687Z,101443.29
2023-04-03T08:15:15.362Z,101432.23
2023-04-03T08:19:26.185Z,101434.16
2023-04-03T08:23:30.498Z,101432.46
2023-04-03T08:27:34.645Z,101433.71
2023-04-03T08:31:38.189Z,101437.83
2023-04-03T08:35:42.686Z,101442.52
2023-04-03T08:39:46.379Z,101439.72
2023-04-03T08:44:17.388Z,101440.48
2023-04-03T08:48:34.376Z,101437.60
2023-04-03T08:52:49.291Z,101432.27
2023-04-03T08:56:52.805Z,101432.52
2023-04-03T09:01:14.096Z,101437.35
2023-04-03T09:05:33.770Z,101443.51
2023-04-03T09:09:42.540Z,101434.52
2023-04-03T09:14:12.328Z,101434.96
2023-04-03T09:18:25.312Z,101447.13
2023-04-03T09:22:41.803Z,101442.95
2023-04-03T09:27:01.740Z,101444.67
2023-04-03T09:31:17.871Z,101441.44
2023-04-03T09:35:39.969Z,101442.66
2023-04-03T09:39:54.542Z,101435.48
2023-04-03T09:43:57.909Z,101445.85
2023-04-03T09:48:16.756Z,101445.08
2023-04-03T09:52:24.431Z,101439.63
2023-04-03T09:56:32.688Z,101438.15
2023-04-03T10:00:39.244Z,101438.19
2023-04-03T10:04:48.790Z,101434.99
2023-04-03T10:09:03.925Z,101432.89
2023-04-03T10:13:07.402Z,101426.49
2023-04-03T10:17:20.862Z,101425.79
2023-04-03T10:21:52.208Z,101429.35
2023-04-03T10:26:01.659Z,101424.20
2023-04-03T10:30:21.985Z,101430.47
2023-04-03T10:34:28.419Z,101428.52
2023-04-03T10:38:47.158Z,101419.95
2023-04-03T10:43:08.329Z,101422.66
2023-04-03T10:47:11.449Z,101416.77
2023-04-03T10:51:30.446Z,101406.96
2023-04-03T10:55:48.626Z,101409.86
2023-04-03T11:00:05.691Z,101416.42
2023-04-03T11:04:11.871Z,101413.08
2023-04-03T11:08:45.750Z,101412.94
2023-04-03T11:13:07.977Z,101402.98
2023-04-03T11:17:17.691Z,101387.66
2023-04-03T11:21:27.829Z,101390.40
2023-04-03T11:25:35.743Z,101400.84
2023-04-03T11:29:42.041Z,101397.67
2023-04-03T11:34:09.315Z,101396.23
2023-04-03T11:38:23.137Z,101399.39
2023-04-03T11:42:31.698Z,101399.39
2023-04-03T11:46:58.448Z,101396.89
2023-04-03T11:51:21.865Z,101395.47
2023-04-03T11:55:28.120Z,101383.80
2023-04-03T11:59:38.535Z,101395.05
2023-04-03T12:03:42.131Z,101399.02
2023-04-03T12:08:25.335Z,101391.14
2023-04-03T12:12:38.912Z,101393.08
2023-04-03T12:16:42.173Z,101396.02
2023-04-03T12:21:04.390Z,101389.42
2023-04-03T12:25:45.818Z,101390.16
2023-04-03T12:29:57.092Z,101394.45
2023-04-03T12:34:31.024Z,101384.95
2023-04-03T12:38:35.471Z,101383.81
2023-04-03T12:43:04.118Z,101372.58
2023-04-03T12:47:34.153Z,101387.13
2023-04-03T12:51:42.321Z,101382.48
2023-04-03T12:55:45.522Z,101375.83
2023-04-03T12:59:48.732Z,101369.48
2023-04-03T13:03:55.322Z,101357.84
2023-04-03T13:08:06.065Z,101369.91
2023-04-03T13:12:15.523Z,101373.70
2023-04-03T13:16:18.502Z,101375.87
2023-04-03T13:20:24.247Z,101378.54
2023-04-03T13:24:27.934Z,101367.47
2023-04-03T13:28:33.148Z,101359.27
2023-04-03T13:32:37.212Z,101362.48
2023-04-03T13:36:45.595Z,101350.19
2023-04-03T13:45:29.559Z,101363.40
2023-04-03T13:49:43.017Z,101359.20
2023-04-03T13:53:50.381Z,101369.76
2023-04-03T13:58:19.889Z,101370.02
2023-04-03T14:02:32.100Z,101361.04
2023-04-03T14:06:35.459Z,101351.73
2023-04-03T14:10:39.751Z,101355.14
2023-04-03T14:14:43.685Z,101353.17
2023-04-03T14:18:47.783Z,101350.33
2023-04-03T14:22:52.259Z,101347.79
2023-04-03T14:26:56.572Z,101356.97
2023-04-03T14:30:59.655Z,101354.36
2023-04-03T14:35:04.270Z,101358.48
2023-04-03T14:39:09.777Z,101352.50
2023-04-03T14:43:13.545Z,101352.20
2023-04-03T14:47:30.439Z,101357.58
2023-04-03T14:51:35.227Z,101353.17
2023-04-03T14:55:38.085Z,101351.19
2023-04-03T14:59:41.445Z,101354.63
2023-04-03T15:03:44.403Z,101347.52
2023-04-03T15:07:54.991Z,101344.42
2023-04-03T15:11:57.898Z,101343.27
2023-04-03T15:16:01.302Z,101349.57
2023-04-03T15:20:12.553Z,101349.73
2023-04-03T15:24:15.889Z,101348.39
2023-04-03T15:28:33.206Z,101349.98
2023-04-03T15:32:36.409Z,101357.91
2023-04-03T15:36:40.602Z,101365.92
2023-04-03T15:40:44.662Z,101362.77
2023-04-03T15:44:47.555Z,101365.91
2023-04-03T15:48:50.788Z,101368.45
2023-04-03T15:52:58.939Z,101364.88
2023-04-03T15:57:02.127Z,101366.92
2023-04-03T16:01:06.503Z,101366.40
2023-04-03T16:09:12.852Z,101368.42
2023-04-03T16:13:16.401Z,101368.19
2023-04-03T16:17:19.488Z,101360.80
2023-04-03T16:21:23.525Z,101361.94
2023-04-03T16:25:27.476Z,101368.64
2023-04-03T16:29:30.822Z,101370.46
2023-04-03T16:33:34.452Z,101375.21
2023-04-03T16:37:42.168Z,101375.58
2023-04-03T16:41:46.315Z,101380.02
2023-04-03T16:45:49.088Z,101378.94
2023-04-03T16:49:52.149Z,101377.65
2023-04-03T16:53:54.940Z,101378.66
2023-04-03T16:57:58.335Z,101377.71
2023-04-03T17:02:01.292Z,101375.59
2023-04-03T17:06:04.263Z,101375.86
2023-04-03T17:10:07.990Z,101370.86
2023-04-03T17:14:11.006Z,101369.54
2023-04-03T17:18:14.229Z,101371.09
2023-04-03T17:22:18.192Z,101369.94
2023-04-03T17:26:22.294Z,101371.00
2023-04-03T17:30:25.535Z,101382.30
2023-04-03T17:34:28.828Z,101387.01
2023-04-03T17:38:33.498Z,101388.88
2023-04-03T17:42:36.443Z,101392.84
2023-04-03T17:46:39.558Z,101396.45
2023-04-03T17:50:42.598Z,101392.64
2023-04-03T17:54:45.577Z,101393.89
2023-04-03T17:58:49.401Z,101393.20
2023-04-03T18:02:54.320Z,101391.86
2023-04-03T18:06:57.437Z,101391.41
2023-04-03T18:11:00.442Z,101390.36
2023-04-03T18:15:05.169Z,101392.35
2023-04-03T18:19:22.018Z,101394.27
2023-04-03T18:23:28.845Z,101398.48
2023-04-03T18:27:32.072Z,101398.38
2023-04-03T18:31:36.491Z,101400.78
2023-04-03T18:35:39.444Z,101405.98
2023-04-03T18:39:42.491Z,101404.44
2023-04-03T18:43:45.361Z,101401.80
2023-04-03T18:47:48.352Z,101407.59
2023-04-03T18:51:51.341Z,101413.09
2023-04-03T18:55:55.006Z,101409.10
2023-04-03T18:59:57.838Z,101407.48
2023-04-03T19:04:01.165Z,101401.02
2023-04-03T19:08:04.545Z,101403.32
2023-04-03T19:12:07.541Z,101399.95
2023-04-03T19:16:11.069Z,101402.73
2023-04-03T19:20:14.669Z,101399.99
2023-04-03T19:24:18.668Z,101403.30
2023-04-03T19:28:21.695Z,101404.30
2023-04-03T19:32:27.308Z,101400.80
2023-04-03T19:36:31.389Z,101407.06
2023-04-03T19:40:35.534Z,101407.16
2023-04-03T19:44:38.842Z,101402.70
2023-04-03T19:48:42.226Z,101405.74
2023-04-03T19:52:45.116Z,101411.63
2023-04-03T19:56:48.186Z,101413.38
2023-04-03T20:00:51.939Z,101411.83
2023-04-03T20:04:55.322Z,101407.23
2023-04-03T20:08:59.293Z,101404.48
2023-04-03T20:13:04.269Z,101402.94
2023-04-03T20:17:07.330Z,101403.73
2023-04-03T20:21:11.024Z,101402.33
2023-04-03T20:25:17.502Z,101401.95
2023-04-03T20:29:27.502Z,101400.38
2023-04-03T20:33:30.593Z,101399.67
2023-04-03T20:37:33.839Z,101396.44
2023-04-03T20:41:37.679Z,101387.33
2023-04-03T20:45:40.618Z,101382.51
2023-04-03T20:49:43.765Z,101384.85
2023-04-03T20:53:48.207Z,101384.63
2023-04-03T20:57:54.234Z,101381.77
2023-04-03T21:01:58.417Z,101383.85
2023-04-03T21:06:01.084Z,101383.29
2023-04-03T21:10:41.719Z,101386.89
2023-04-03T21:15:23.057Z,101389.71
2023-04-03T21:19:26.363Z,101389.15
2023-04-03T21:23:30.710Z,101388.80
2023-04-03T21:27:34.566Z,101390.47
2023-04-03T21:31:48.643Z,101393.48
2023-04-03T21:35:57.860Z,101390.48
2023-04-03T21:40:01.164Z,101388.44
2023-04-03T21:44:04.963Z,101392.78
2023-04-03T21:48:10.248Z,101393.66
2023-04-03T21:52:13.046Z,101394.66
2023-04-03T21:56:15.815Z,101396.08
2023-04-03T22:00:19.710Z,101401.15
2023-04-03T22:04:22.822Z,101398.14
2023-04-03T22:08:25.949Z,101399.45
2023-04-03T22:12:29.546Z,101398.07
2023-04-03T22:16:32.452Z,101401.68
2023-04-03T22:20:35.683Z,101401.64
2023-04-03T22:24:38.536Z,101401.67
2023-04-03T22:28:44.485Z,101405.36
2023-04-03T22:32:47.411Z,101407.88
2023-04-03T22:36:50.831Z,101409.81
2023-04-03T22:41:00.797Z,101413.72
2023-04-03T22:45:04.941Z,101411.89
2023-04-03T22:49:08.159Z,101413.02
2023-04-03T22:53:11.270Z,101411.98
2023-04-03T22:57:14.292Z,101409.68
2023-04-03T23:01:19.483Z,101410.25
2023-04-03T23:05:22.579Z,101408.59
2023-04-03T23:09:25.551Z,101407.58
2023-04-03T23:13:28.676Z,101410.24
2023-04-03T23:17:32.557Z,101409.27
2023-04-03T23:21:36.399Z,101406.05
2023-04-03T23:25:39.474Z,101408.50
2023-04-03T23:29:43.536Z,101410.86
2023-04-03T23:33:46.528Z,101407.80
2023-04-03T23:37:49.455Z,101406.76
2023-04-03T23:41:52.505Z,101410.95
2023-04-03T23:45:55.321Z,101409.05
2023-04-03T23:49:58.553Z,101411.73
2023-04-03T23:54:01.727Z,101412.02
2023-04-03T23:58:04.710Z,101410.57
